sensor_id;sensor_type;location;lat;lon;timestamp;pressure;altitude;pressure_sealevel;temperature;humidity
21594;BME280;10959;51.328;7.322;2023-01-30T00:00:49;98970.31;;;3.68;86.12
21594;BME280;10959;51.328;7.322;2023-01-30T00:03:16;98951.63;;;3.69;86.49
21594;BME280;10959;51.328;7.322;2023-01-30T00:05:44;98930.19;;;3.75;86.47
21594;BME280;10959;51.328;7.322;2023-01-30T00:08:10;98945.31;;;3.75;86.60
21594;BME280;10959;51.328;7.322;2023-01-30T00:10:37;98920.47;;;3.73;86.86
21594;BME280;10959;51.328;7.322;2023-01-30T00:13:04;98935.47;;;3.77;87.10
21594;BME280;10959;51.328;7.322;2023-01-30T00:15:30;98930.97;;;3.82;87.01
21594;BME280;10959;51.328;7.322;2023-01-30T00:17:57;98941.63;;;3.82;87.17
21594;BME280;10959;51.328;7.322;2023-01-30T00:20:23;98961.16;;;3.81;87.17
21594;BME280;10959;51.328;7.322;2023-01-30T00:22:51;98946.88;;;3.85;87.49
21594;BME280;10959;51.328;7.322;2023-01-30T00:25:18;98936.28;;;3.82;88.02
21594;BME280;10959;51.328;7.322;2023-01-30T00:27:44;98926.44;;;3.86;88.16
21594;BME280;10959;51.328;7.322;2023-01-30T00:30:11;98940.66;;;3.86;88.10
21594;BME280;10959;51.328;7.322;2023-01-30T00:32:38;98936.09;;;3.91;88.06
21594;BME280;10959;51.328;7.322;2023-01-30T00:35:05;98930.72;;;3.94;88.22
21594;BME280;10959;51.328;7.322;2023-01-30T00:37:32;98927.06;;;3.98;88.34
21594;BME280;10959;51.328;7.322;2023-01-30T00:40:00;98928.66;;;4.06;88.19
21594;BME280;10959;51.328;7.322;2023-01-30T00:42:26;98921.69;;;4.02;88.55
21594;BME280;10959;51.328;7.322;2023-01-30T00:45:10;98915.38;;;4.04;88.37
21594;BME280;10959;51.328;7.322;2023-01-30T00:47:55;98900.16;;;4.11;88.40
21594;BME280;10959;51.328;7.322;2023-01-30T00:50:21;98913.47;;;4.11;88.41
21594;BME280;10959;51.328;7.322;2023-01-30T00:52:48;98907.25;;;4.12;88.51
21594;BME280;10959;51.328;7.322;2023-01-30T00:55:16;98899.22;;;4.13;88.32
21594;BME280;10959;51.328;7.322;2023-01-30T00:57:43;98878.19;;;4.00;88.41
21594;BME280;10959;51.328;7.322;2023-01-30T01:00:11;98883.19;;;4.15;88.61
21594;BME280;10959;51.328;7.322;2023-01-30T01:02:37;98892.88;;;4.19;88.67
21594;BME280;10959;51.328;7.322;2023-01-30T01:05:05;98889.31;;;4.20;88.56
21594;BME280;10959;51.328;7.322;2023-01-30T01:07:31;98883.19;;;4.15;88.99
21594;BME280;10959;51.328;7.322;2023-01-30T01:09:58;98882.22;;;4.19;88.74
21594;BME280;10959;51.328;7.322;2023-01-30T01:12:25;98883.91;;;4.23;88.62
21594;BME280;10959;51.328;7.322;2023-01-30T01:14:52;98877.66;;;4.23;88.68
21594;BME280;10959;51.328;7.322;2023-01-30T01:17:18;98878.41;;;4.29;88.69
21594;BME280;10959;51.328;7.322;2023-01-30T01:19:45;98874.84;;;4.30;88.67
21594;BME280;10959;51.328;7.322;2023-01-30T01:22:11;98858.84;;;4.30;88.81
21594;BME280;10959;51.328;7.322;2023-01-30T01:24:38;98847.22;;;4.35;88.70
21594;BME280;10959;51.328;7.322;2023-01-30T01:27:04;98844.47;;;4.38;88.92
21594;BME280;10959;51.328;7.322;2023-01-30T01:29:32;98823.16;;;4.38;88.88
21594;BME280;10959;51.328;7.322;2023-01-30T01:31:58;98814.25;;;4.39;89.03
21594;BME280;10959;51.328;7.322;2023-01-30T01:34:25;98810.63;;;4.40;89.42
21594;BME280;10959;51.328;7.322;2023-01-30T01:36:51;98821.53;;;4.30;89.73
21594;BME280;10959;51.328;7.322;2023-01-30T01:39:18;98829.41;;;4.35;89.68
21594;BME280;10959;51.328;7.322;2023-01-30T01:41:44;98824.81;;;4.42;89.72
21594;BME280;10959;51.328;7.322;2023-01-30T01:44:11;98830.06;;;4.45;89.67
21594;BME280;10959;51.328;7.322;2023-01-30T01:46:42;98835.41;;;4.45;89.67
21594;BME280;10959;51.328;7.322;2023-01-30T01:49:13;98822.91;;;4.47;89.27
21594;BME280;10959;51.328;7.322;2023-01-30T01:51:46;98830.28;;;4.36;89.60
21594;BME280;10959;51.328;7.322;2023-01-30T01:54:16;98822.91;;;4.47;89.85
21594;BME280;10959;51.328;7.322;2023-01-30T01:56:45;98815.59;;;4.55;89.83
21594;BME280;10959;51.328;7.322;2023-01-30T01:59:19;98824.59;;;4.51;90.03
21594;BME280;10959;51.328;7.322;2023-01-30T02:01:49;98815.72;;;4.50;90.35
21594;BME280;10959;51.328;7.322;2023-01-30T02:04:17;98806.69;;;4.56;90.27
21594;BME280;10959;51.328;7.322;2023-01-30T02:07:04;98792.41;;;4.57;90.29
21594;BME280;10959;51.328;7.322;2023-01-30T02:09:31;98802.09;;;4.61;90.36
21594;BME280;10959;51.328;7.322;2023-01-30T02:11:59;98791.50;;;4.58;90.43
21594;BME280;10959;51.328;7.322;2023-01-30T02:14:29;98787.84;;;4.62;90.53
21594;BME280;10959;51.328;7.322;2023-01-30T02:16:58;98780.72;;;4.64;90.42
21594;BME280;10959;51.328;7.322;2023-01-30T02:19:32;98779.94;;;4.59;90.37
21594;BME280;10959;51.328;7.322;2023-01-30T02:22:20;98780.97;;;4.54;90.54
21594;BME280;10959;51.328;7.322;2023-01-30T02:24:58;98765.84;;;4.54;91.17
21594;BME280;10959;51.328;7.322;2023-01-30T02:27:49;98772.94;;;4.55;90.88
21594;BME280;10959;51.328;7.322;2023-01-30T02:30:46;98762.50;;;4.46;90.88
21594;BME280;10959;51.328;7.322;2023-01-30T02:33:29;98749.78;;;4.56;91.17
21594;BME280;10959;51.328;7.322;2023-01-30T02:36:04;98724.84;;;4.58;91.38
21594;BME280;10959;51.328;7.322;2023-01-30T02:38:39;98737.19;;;4.62;91.56
21594;BME280;10959;51.328;7.322;2023-01-30T02:41:15;98728.28;;;4.63;91.36
21594;BME280;10959;51.328;7.322;2023-01-30T02:43:52;98742.34;;;4.68;91.23
21594;BME280;10959;51.328;7.322;2023-01-30T02:46:28;98729.78;;;4.74;91.25
21594;BME280;10959;51.328;7.322;2023-01-30T02:49:00;98717.97;;;4.82;91.19
21594;BME280;10959;51.328;7.322;2023-01-30T02:51:31;98695.75;;;4.82;91.27
21594;BME280;10959;51.328;7.322;2023-01-30T02:53:59;98711.69;;;4.85;91.45
21594;BME280;10959;51.328;7.322;2023-01-30T02:56:26;98723.25;;;4.84;91.13
21594;BME280;10959;51.328;7.322;2023-01-30T02:58:57;98718.78;;;4.86;91.33
21594;BME280;10959;51.328;7.322;2023-01-30T03:01:48;98707.63;;;4.72;91.14
21594;BME280;10959;51.328;7.322;2023-01-30T03:04:30;98718.91;;;4.80;91.21
21594;BME280;10959;51.328;7.322;2023-01-30T03:07:21;98714.59;;;4.76;91.17
21594;BME280;10959;51.328;7.322;2023-01-30T03:09:57;98710.78;;;4.86;91.25
21594;BME280;10959;51.328;7.322;2023-01-30T03:12:34;98691.91;;;4.92;91.18
21594;BME280;10959;51.328;7.322;2023-01-30T03:15:09;98706.25;;;4.88;91.28
21594;BME280;10959;51.328;7.322;2023-01-30T03:17:39;98690.97;;;4.95;91.28
21594;BME280;10959;51.328;7.322;2023-01-30T03:20:09;98700.56;;;5.00;91.43
21594;BME280;10959;51.328;7.322;2023-01-30T03:22:35;98678.38;;;4.98;91.44
21594;BME280;10959;51.328;7.322;2023-01-30T03:25:02;98691.47;;;5.08;91.38
21594;BME280;10959;51.328;7.322;2023-01-30T03:27:29;98676.41;;;5.05;91.17
21594;BME280;10959;51.328;7.322;2023-01-30T03:29:55;98682.56;;;5.09;91.31
21594;BME280;10959;51.328;7.322;2023-01-30T03:32:22;98689.53;;;5.13;91.07
21594;BME280;10959;51.328;7.322;2023-01-30T03:34:50;98686.13;;;5.08;91.69
21594;BME280;10959;51.328;7.322;2023-01-30T03:37:16;98676.31;;;5.08;91.68
21594;BME280;10959;51.328;7.322;2023-01-30T03:39:43;98676.19;;;5.13;91.38
21594;BME280;10959;51.328;7.322;2023-01-30T03:42:09;98676.19;;;5.13;91.78
21594;BME280;10959;51.328;7.322;2023-01-30T03:44:36;98666.53;;;5.09;91.83
21594;BME280;10959;51.328;7.322;2023-01-30T03:47:02;98658.56;;;5.07;91.99
21594;BME280;10959;51.328;7.322;2023-01-30T03:49:29;98643.25;;;5.14;92.09
21594;BME280;10959;51.328;7.322;2023-01-30T03:51:57;98652.09;;;5.16;91.78
21594;BME280;10959;51.328;7.322;2023-01-30T03:54:23;98649.44;;;5.16;92.02
21594;BME280;10959;51.328;7.322;2023-01-30T03:56:50;98641.47;;;5.13;92.47
21594;BME280;10959;51.328;7.322;2023-01-30T03:59:16;98628.97;;;5.15;92.45
21594;BME280;10959;51.328;7.322;2023-01-30T04:01:42;98613.78;;;5.17;92.47
21594;BME280;10959;51.328;7.322;2023-01-30T04:04:09;98613.69;;;5.20;92.17
21594;BME280;10959;51.328;7.322;2023-01-30T04:06:35;98619.97;;;5.19;92.15
21594;BME280;10959;51.328;7.322;2023-01-30T04:09:03;98623.66;;;5.15;92.56
21594;BME280;10959;51.328;7.322;2023-01-30T04:11:30;98633.16;;;5.24;92.24
21594;BME280;10959;51.328;7.322;2023-01-30T04:13:56;98631.34;;;5.24;92.22
21594;BME280;10959;51.328;7.322;2023-01-30T04:16:24;98622.38;;;5.27;92.31
21594;BME280;10959;51.328;7.322;2023-01-30T04:18:51;98617.94;;;5.27;92.27
21594;BME280;10959;51.328;7.322;2023-01-30T04:21:19;98619.56;;;5.31;92.19
21594;BME280;10959;51.328;7.322;2023-01-30T04:23:45;98619.28;;;5.41;92.19
21594;BME280;10959;51.328;7.322;2023-01-30T04:26:13;98614.97;;;5.36;92.24
21594;BME280;10959;51.328;7.322;2023-01-30T04:28:40;98619.50;;;5.34;92.15
21594;BME280;10959;51.328;7.322;2023-01-30T04:31:08;98621.31;;;5.32;92.21
21594;BME280;10959;51.328;7.322;2023-01-30T04:33:35;98612.41;;;5.33;92.46
21594;BME280;10959;51.328;7.322;2023-01-30T04:36:05;98608.88;;;5.31;92.37
21594;BME280;10959;51.328;7.322;2023-01-30T04:38:32;98620.41;;;5.33;92.73
21594;BME280;10959;51.328;7.322;2023-01-30T04:41:00;98615.00;;;5.35;92.51
21594;BME280;10959;51.328;7.322;2023-01-30T04:43:29;98614.72;;;5.44;92.31
21594;BME280;10959;51.328;7.322;2023-01-30T04:45:56;98624.31;;;5.50;92.34
21594;BME280;10959;51.328;7.322;2023-01-30T04:48:23;98600.16;;;5.54;92.01
21594;BME280;10959;51.328;7.322;2023-01-30T04:50:52;98622.50;;;5.52;91.95
21594;BME280;10959;51.328;7.322;2023-01-30T04:53:19;98613.47;;;5.56;92.19
21594;BME280;10959;51.328;7.322;2023-01-30T04:55:46;98612.69;;;5.52;92.41
21594;BME280;10959;51.328;7.322;2023-01-30T04:58:13;98626.19;;;5.48;92.52
21594;BME280;10959;51.328;7.322;2023-01-30T05:00:41;98609.19;;;5.50;92.69
21594;BME280;10959;51.328;7.322;2023-01-30T05:03:08;98595.78;;;5.52;92.19
21594;BME280;10959;51.328;7.322;2023-01-30T05:05:34;98602.78;;;5.56;92.45
21594;BME280;10959;51.328;7.322;2023-01-30T05:08:01;98611.97;;;5.46;93.42
21594;BME280;10959;51.328;7.322;2023-01-30T05:10:28;98593.97;;;5.52;93.57
21594;BME280;10959;51.328;7.322;2023-01-30T05:12:54;98595.56;;;5.58;92.87
21594;BME280;10959;51.328;7.322;2023-01-30T05:15:21;98593.63;;;5.63;92.82
21594;BME280;10959;51.328;7.322;2023-01-30T05:17:49;98603.31;;;5.67;92.31
21594;BME280;10959;51.328;7.322;2023-01-30T05:20:15;98602.34;;;5.68;92.61
21594;BME280;10959;51.328;7.322;2023-01-30T05:22:42;98586.31;;;5.68;92.33
21594;BME280;10959;51.328;7.322;2023-01-30T05:25:08;98566.81;;;5.66;92.49
21594;BME280;10959;51.328;7.322;2023-01-30T05:27:35;98572.88;;;5.71;92.79
21594;BME280;10959;51.328;7.322;2023-01-30T05:30:02;98584.16;;;5.80;92.17
21594;BME280;10959;51.328;7.322;2023-01-30T05:32:28;98576.31;;;5.75;92.54
21594;BME280;10959;51.328;7.322;2023-01-30T05:34:56;98570.00;;;5.78;92.18
21594;BME280;10959;51.328;7.322;2023-01-30T05:37:23;98584.50;;;5.70;92.57
21594;BME280;10959;51.328;7.322;2023-01-30T05:39:50;98600.53;;;5.70;92.93
21594;BME280;10959;51.328;7.322;2023-01-30T05:42:16;98583.31;;;5.79;93.02
21594;BME280;10959;51.328;7.322;2023-01-30T05:44:43;98580.59;;;5.81;92.52
21594;BME280;10959;51.328;7.322;2023-01-30T05:47:10;98566.19;;;5.85;92.67
21594;BME280;10959;51.328;7.322;2023-01-30T05:49:36;98571.53;;;5.85;92.80
21594;BME280;10959;51.328;7.322;2023-01-30T05:52:04;98578.72;;;5.83;92.72
21594;BME280;10959;51.328;7.322;2023-01-30T05:54:31;98573.47;;;5.80;92.91
21594;BME280;10959;51.328;7.322;2023-01-30T05:56:59;98550.28;;;5.82;93.44
21594;BME280;10959;51.328;7.322;2023-01-30T05:59:25;98555.81;;;5.76;93.97
21594;BME280;10959;51.328;7.322;2023-01-30T06:01:51;98564.56;;;5.81;93.93
21594;BME280;10959;51.328;7.322;2023-01-30T06:04:18;98568.34;;;5.74;94.35
21594;BME280;10959;51.328;7.322;2023-01-30T06:06:44;98555.72;;;5.79;94.27
21594;BME280;10959;51.328;7.322;2023-01-30T06:09:12;98551.91;;;5.86;94.55
21594;BME280;10959;51.328;7.322;2023-01-30T06:11:39;98580.38;;;5.87;94.74
21594;BME280;10959;51.328;7.322;2023-01-30T06:14:05;98571.44;;;5.88;95.64
21594;BME280;10959;51.328;7.322;2023-01-30T06:16:32;98571.22;;;5.94;95.21
21594;BME280;10959;51.328;7.322;2023-01-30T06:18:58;98572.97;;;5.95;94.68
21594;BME280;10959;51.328;7.322;2023-01-30T06:21:25;98587.09;;;6.00;94.79
21594;BME280;10959;51.328;7.322;2023-01-30T06:23:51;98582.66;;;5.99;94.69
21594;BME280;10959;51.328;7.322;2023-01-30T06:26:19;98596.09;;;5.96;95.06
21594;BME280;10959;51.328;7.322;2023-01-30T06:28:45;98613.16;;;5.92;95.10
21594;BME280;10959;51.328;7.322;2023-01-30T06:31:12;98601.38;;;5.99;96.32
21594;BME280;10959;51.328;7.322;2023-01-30T06:33:38;98596.22;;;5.93;96.57
21594;BME280;10959;51.328;7.322;2023-01-30T06:36:06;98598.03;;;5.91;96.97
21594;BME280;10959;51.328;7.322;2023-01-30T06:38:32;98585.41;;;5.96;97.26
21594;BME280;10959;51.328;7.322;2023-01-30T06:40:59;98587.19;;;5.97;97.35
21594;BME280;10959;51.328;7.322;2023-01-30T06:43:27;98594.16;;;6.01;97.48
21594;BME280;10959;51.328;7.322;2023-01-30T06:45:53;98595.09;;;6.00;97.56
21594;BME280;10959;51.328;7.322;2023-01-30T06:48:20;98597.44;;;6.10;98.07
21594;BME280;10959;51.328;7.322;2023-01-30T06:50:46;98609.03;;;6.10;97.79
21594;BME280;10959;51.328;7.322;2023-01-30T06:53:13;98638.16;;;6.18;97.70
21594;BME280;10959;51.328;7.322;2023-01-30T06:55:39;98636.41;;;6.17;97.59
21594;BME280;10959;51.328;7.322;2023-01-30T06:58:07;98631.06;;;6.17;97.46
21594;BME280;10959;51.328;7.322;2023-01-30T07:00:37;98632.13;;;6.11;97.62
21594;BME280;10959;51.328;7.322;2023-01-30T07:03:04;98628.38;;;6.17;97.78
21594;BME280;10959;51.328;7.322;2023-01-30T07:05:31;98624.84;;;6.16;98.51
21594;BME280;10959;51.328;7.322;2023-01-30T07:07:58;98614.03;;;6.19;98.23
21594;BME280;10959;51.328;7.322;2023-01-30T07:10:24;98609.88;;;6.11;98.92
21594;BME280;10959;51.328;7.322;2023-01-30T07:12:51;98614.81;;;6.23;98.86
21594;BME280;10959;51.328;7.322;2023-01-30T07:15:18;98619.94;;;6.29;98.22
21594;BME280;10959;51.328;7.322;2023-01-30T07:17:46;98607.13;;;6.39;97.46
21594;BME280;10959;51.328;7.322;2023-01-30T07:20:12;98604.38;;;6.40;97.09
21594;BME280;10959;51.328;7.322;2023-01-30T07:22:39;98621.47;;;6.36;97.10
21594;BME280;10959;51.328;7.322;2023-01-30T07:25:06;98611.50;;;6.40;96.75
21594;BME280;10959;51.328;7.322;2023-01-30T07:27:33;98620.44;;;6.40;97.17
21594;BME280;10959;51.328;7.322;2023-01-30T07:29:59;98599.72;;;6.46;96.73
21594;BME280;10959;51.328;7.322;2023-01-30T07:32:26;98613.59;;;6.57;96.31
21594;BME280;10959;51.328;7.322;2023-01-30T07:34:54;98615.47;;;6.55;96.54
21594;BME280;10959;51.328;7.322;2023-01-30T07:37:20;98610.84;;;6.58;96.46
21594;BME280;10959;51.328;7.322;2023-01-30T07:39:47;98627.91;;;6.56;95.98
21594;BME280;10959;51.328;7.322;2023-01-30T07:42:13;98631.50;;;6.55;95.80
21594;BME280;10959;51.328;7.322;2023-01-30T07:44:40;98616.84;;;6.65;96.02
21594;BME280;10959;51.328;7.322;2023-01-30T07:47:06;98638.63;;;6.56;94.98
21594;BME280;10959;51.328;7.322;2023-01-30T07:49:33;98639.78;;;6.47;94.62
21594;BME280;10959;51.328;7.322;2023-01-30T07:52:00;98628.22;;;6.47;94.13
21594;BME280;10959;51.328;7.322;2023-01-30T07:54:27;98631.81;;;6.46;95.00
21594;BME280;10959;51.328;7.322;2023-01-30T07:56:53;98636.97;;;6.52;94.86
21594;BME280;10959;51.328;7.322;2023-01-30T07:59:20;98639.28;;;6.37;94.47
21594;BME280;10959;51.328;7.322;2023-01-30T08:01:46;98638.81;;;6.50;94.71
21594;BME280;10959;51.328;7.322;2023-01-30T08:04:13;98645.13;;;6.49;93.12
21594;BME280;10959;51.328;7.322;2023-01-30T08:06:39;98659.72;;;6.38;92.45
21594;BME280;10959;51.328;7.322;2023-01-30T08:09:07;98664.25;;;6.36;92.47
21594;BME280;10959;51.328;7.322;2023-01-30T08:11:34;98656.50;;;6.54;93.04
21594;BME280;10959;51.328;7.322;2023-01-30T08:14:00;98661.19;;;6.47;91.99
21594;BME280;10959;51.328;7.322;2023-01-30T08:16:27;98658.19;;;6.56;91.89
21594;BME280;10959;51.328;7.322;2023-01-30T08:18:56;98667.31;;;6.51;91.65
21594;BME280;10959;51.328;7.322;2023-01-30T08:21:22;98676.25;;;6.50;91.37
21594;BME280;10959;51.328;7.322;2023-01-30T08:23:49;98660.44;;;6.44;91.37
21594;BME280;10959;51.328;7.322;2023-01-30T08:26:17;98661.25;;;6.46;89.49
21594;BME280;10959;51.328;7.322;2023-01-30T08:28:44;98670.78;;;6.53;89.55
21594;BME280;10959;51.328;7.322;2023-01-30T08:31:11;98683.13;;;6.57;90.07
21594;BME280;10959;51.328;7.322;2023-01-30T08:33:38;98665.56;;;6.50;88.25
21594;BME280;10959;51.328;7.322;2023-01-30T08:36:05;98677.28;;;6.46;88.44
21594;BME280;10959;51.328;7.322;2023-01-30T08:38:32;98677.47;;;6.66;88.18
21594;BME280;10959;51.328;7.322;2023-01-30T08:40:58;98688.50;;;6.57;88.15
21594;BME280;10959;51.328;7.322;2023-01-30T08:43:26;98690.75;;;6.69;88.82
21594;BME280;10959;51.328;7.322;2023-01-30T08:45:53;98687.50;;;6.85;89.16
21594;BME280;10959;51.328;7.322;2023-01-30T08:48:20;98694.59;;;6.86;88.64
21594;BME280;10959;51.328;7.322;2023-01-30T08:50:46;98692.63;;;6.91;89.14
21594;BME280;10959;51.328;7.322;2023-01-30T08:53:13;98691.47;;;6.98;89.08
21594;BME280;10959;51.328;7.322;2023-01-30T08:55:39;98683.63;;;6.94;88.62
21594;BME280;10959;51.328;7.322;2023-01-30T08:58:06;98687.16;;;6.94;88.50
21594;BME280;10959;51.328;7.322;2023-01-30T09:00:33;98678.88;;;6.77;88.77
21594;BME280;10959;51.328;7.322;2023-01-30T09:03:00;98668.06;;;6.80;89.02
21594;BME280;10959;51.328;7.322;2023-01-30T09:05:27;98671.34;;;6.88;88.90
21594;BME280;10959;51.328;7.322;2023-01-30T09:07:54;98682.03;;;6.88;89.18
21594;BME280;10959;51.328;7.322;2023-01-30T09:10:20;98683.88;;;6.86;89.37
21594;BME280;10959;51.328;7.322;2023-01-30T09:12:48;98702.47;;;6.65;87.52
21594;BME280;10959;51.328;7.322;2023-01-30T09:15:15;98679.91;;;6.72;87.93
21594;BME280;10959;51.328;7.322;2023-01-30T09:17:43;98687.50;;;6.60;85.15
21594;BME280;10959;51.328;7.322;2023-01-30T09:20:10;98677.59;;;6.63;83.41
21594;BME280;10959;51.328;7.322;2023-01-30T09:22:37;98661.09;;;6.50;80.80
21594;BME280;10959;51.328;7.322;2023-01-30T09:25:05;98679.00;;;6.48;82.06
21594;BME280;10959;51.328;7.322;2023-01-30T09:27:32;98690.31;;;6.56;82.72
21594;BME280;10959;51.328;7.322;2023-01-30T09:29:59;98690.19;;;6.85;82.73
21594;BME280;10959;51.328;7.322;2023-01-30T09:32:25;98692.75;;;6.88;82.30
21594;BME280;10959;51.328;7.322;2023-01-30T09:34:53;98698.91;;;6.90;83.09
21594;BME280;10959;51.328;7.322;2023-01-30T09:37:20;98706.94;;;6.90;83.58
21594;BME280;10959;51.328;7.322;2023-01-30T09:39:46;98714.03;;;6.91;82.43
21594;BME280;10959;51.328;7.322;2023-01-30T09:42:33;98719.72;;;6.56;81.90
21594;BME280;10959;51.328;7.322;2023-01-30T09:48:05;98730.59;;;6.52;81.78
21594;BME280;10959;51.328;7.322;2023-01-30T09:50:48;98714.44;;;6.55;82.35
21594;BME280;10959;51.328;7.322;2023-01-30T09:53:22;98710.69;;;6.61;81.74
21594;BME280;10959;51.328;7.322;2023-01-30T09:55:52;98709.25;;;6.75;81.48
21594;BME280;10959;51.328;7.322;2023-01-30T09:58:20;98719.50;;;6.63;80.24
21594;BME280;10959;51.328;7.322;2023-01-30T10:00:49;98722.25;;;6.61;81.67
21594;BME280;10959;51.328;7.322;2023-01-30T10:03:18;98724.50;;;6.73;81.46
21594;BME280;10959;51.328;7.322;2023-01-30T10:05:49;98720.47;;;6.60;80.79
21594;BME280;10959;51.328;7.322;2023-01-30T10:08:39;98737.78;;;6.50;81.08
21594;BME280;10959;51.328;7.322;2023-01-30T10:11:16;98742.56;;;6.67;81.09
21594;BME280;10959;51.328;7.322;2023-01-30T10:14:01;98749.31;;;6.52;81.53
21594;BME280;10959;51.328;7.322;2023-01-30T10:16:34;98742.34;;;6.73;81.24
21594;BME280;10959;51.328;7.322;2023-01-30T10:19:24;98765.25;;;6.55;80.53
21594;BME280;10959;51.328;7.322;2023-01-30T10:21:58;98739.94;;;6.65;80.03
21594;BME280;10959;51.328;7.322;2023-01-30T10:24:38;98763.28;;;6.60;80.77
21594;BME280;10959;51.328;7.322;2023-01-30T10:27:11;98752.50;;;6.63;80.44
21594;BME280;10959;51.328;7.322;2023-01-30T10:29:40;98750.34;;;6.74;79.87
21594;BME280;10959;51.328;7.322;2023-01-30T10:32:12;98748.56;;;6.73;79.99
21594;BME280;10959;51.328;7.322;2023-01-30T10:34:42;98752.69;;;6.57;80.17
21594;BME280;10959;51.328;7.322;2023-01-30T10:37:15;98748.81;;;6.66;79.47
21594;BME280;10959;51.328;7.322;2023-01-30T10:39:49;98760.03;;;6.52;79.06
21594;BME280;10959;51.328;7.322;2023-01-30T10:42:21;98756.25;;;6.31;79.24
21594;BME280;10959;51.328;7.322;2023-01-30T10:44:50;98746.94;;;6.69;79.68
21594;BME280;10959;51.328;7.322;2023-01-30T10:47:32;98750.19;;;6.52;79.18
21594;BME280;10959;51.328;7.322;2023-01-30T10:50:12;98748.19;;;6.59;79.42
21594;BME280;10959;51.328;7.322;2023-01-30T10:52:44;98738.09;;;6.67;77.86
21594;BME280;10959;51.328;7.322;2023-01-30T10:55:17;98749.00;;;6.61;79.05
21594;BME280;10959;51.328;7.322;2023-01-30T10:57:53;98753.47;;;6.61;78.51
21594;BME280;10959;51.328;7.322;2023-01-30T11:00:27;98749.22;;;6.55;77.82
21594;BME280;10959;51.328;7.322;2023-01-30T11:03:08;98749.22;;;6.55;77.07
21594;BME280;10959;51.328;7.322;2023-01-30T11:05:41;98744.88;;;6.78;76.92
21594;BME280;10959;51.328;7.322;2023-01-30T11:08:18;98752.41;;;6.66;75.86
21594;BME280;10959;51.328;7.322;2023-01-30T11:10:45;98744.75;;;6.81;75.96
21594;BME280;10959;51.328;7.322;2023-01-30T11:13:14;98746.28;;;6.88;76.25
21594;BME280;10959;51.328;7.322;2023-01-30T11:15:44;98748.13;;;6.86;76.06
21594;BME280;10959;51.328;7.322;2023-01-30T11:18:12;98738.97;;;6.93;75.45
21594;BME280;10959;51.328;7.322;2023-01-30T11:20:40;98737.34;;;6.89;75.44
21594;BME280;10959;51.328;7.322;2023-01-30T11:23:23;98730.75;;;6.72;75.20
21594;BME280;10959;51.328;7.322;2023-01-30T11:25:50;98745.19;;;6.94;75.16
21594;BME280;10959;51.328;7.322;2023-01-30T11:28:17;98754.69;;;7.02;76.00
21594;BME280;10959;51.328;7.322;2023-01-30T11:30:52;98762.88;;;6.72;75.49
21594;BME280;10959;51.328;7.322;2023-01-30T11:33:20;98755.72;;;6.98;75.69
21594;BME280;10959;51.328;7.322;2023-01-30T11:35:55;98758.75;;;6.89;74.93
21594;BME280;10959;51.328;7.322;2023-01-30T11:38:25;98762.28;;;6.89;75.57
21594;BME280;10959;51.328;7.322;2023-01-30T11:41:02;98756.94;;;6.89;75.64
21594;BME280;10959;51.328;7.322;2023-01-30T11:43:31;98756.22;;;7.09;75.83
21594;BME280;10959;51.328;7.322;2023-01-30T11:45:59;98756.66;;;6.97;75.33
21594;BME280;10959;51.328;7.322;2023-01-30T11:48:27;98748.78;;;7.18;75.17
21594;BME280;10959;51.328;7.322;2023-01-30T11:50:58;98758.16;;;7.04;75.19
21594;BME280;10959;51.328;7.322;2023-01-30T11:53:32;98739.72;;;6.97;75.30
21594;BME280;10959;51.328;7.322;2023-01-30T11:56:04;98752.38;;;6.91;75.51
21594;BME280;10959;51.328;7.322;2023-01-30T11:58:33;98734.91;;;7.06;75.76
21594;BME280;10959;51.328;7.322;2023-01-30T12:01:01;98741.25;;;7.04;74.64
21594;BME280;10959;51.328;7.322;2023-01-30T12:03:28;98734.25;;;7.00;75.96
21594;BME280;10959;51.328;7.322;2023-01-30T12:05:56;98746.72;;;7.01;76.27
21594;BME280;10959;51.328;7.322;2023-01-30T12:08:28;98750.75;;;7.13;76.47
21594;BME280;10959;51.328;7.322;2023-01-30T12:10:59;98753.91;;;6.99;76.94
21594;BME280;10959;51.328;7.322;2023-01-30T12:13:30;98753.66;;;7.06;76.30
21594;BME280;10959;51.328;7.322;2023-01-30T12:16:13;98748.25;;;6.83;76.13
21594;BME280;10959;51.328;7.322;2023-01-30T12:18:49;98757.53;;;6.98;76.38
21594;BME280;10959;51.328;7.322;2023-01-30T12:21:27;98758.16;;;7.04;76.86
21594;BME280;10959;51.328;7.322;2023-01-30T12:24:02;98760.03;;;7.02;76.77
21594;BME280;10959;51.328;7.322;2023-01-30T12:26:34;98764.47;;;7.03;76.03
21594;BME280;10959;51.328;7.322;2023-01-30T12:29:10;98758.41;;;6.98;75.39
21594;BME280;10959;51.328;7.322;2023-01-30T12:31:43;98760.28;;;6.96;75.72
21594;BME280;10959;51.328;7.322;2023-01-30T12:34:11;98754.03;;;7.21;75.73
21594;BME280;10959;51.328;7.322;2023-01-30T12:36:42;98751.41;;;7.19;73.88
21594;BME280;10959;51.328;7.322;2023-01-30T12:39:25;98761.81;;;7.03;73.58
21594;BME280;10959;51.328;7.322;2023-01-30T12:42:16;98756.75;;;6.94;74.13
21594;BME280;10959;51.328;7.322;2023-01-30T12:45:00;98758.84;;;7.11;74.66
21594;BME280;10959;51.328;7.322;2023-01-30T12:47:59;98767.78;;;7.10;74.28
21594;BME280;10959;51.328;7.322;2023-01-30T12:50:35;98760.41;;;7.17;74.28
21594;BME280;10959;51.328;7.322;2023-01-30T12:53:23;98760.28;;;6.96;73.94
21594;BME280;10959;51.328;7.322;2023-01-30T12:56:00;98776.59;;;7.14;73.82
21594;BME280;10959;51.328;7.322;2023-01-30T12:58:31;98779.38;;;7.11;73.15
21594;BME280;10959;51.328;7.322;2023-01-30T13:01:15;98778.06;;;6.97;73.13
21594;BME280;10959;51.328;7.322;2023-01-30T13:03:52;98784.09;;;7.29;73.80
21594;BME280;10959;51.328;7.322;2023-01-30T13:06:38;98786.81;;;7.28;72.27
21594;BME280;10959;51.328;7.322;2023-01-30T13:09:17;98783.84;;;7.35;72.51
21594;BME280;10959;51.328;7.322;2023-01-30T13:11:54;98785.84;;;7.54;72.48
21594;BME280;10959;51.328;7.322;2023-01-30T13:14:32;98775.56;;;7.41;72.06
21594;BME280;10959;51.328;7.322;2023-01-30T13:17:12;98789.09;;;7.38;71.67
21594;BME280;10959;51.328;7.322;2023-01-30T13:19:45;98783.53;;;7.44;71.22
21594;BME280;10959;51.328;7.322;2023-01-30T13:22:16;98790.03;;;7.61;71.89
21594;BME280;10959;51.328;7.322;2023-01-30T13:24:53;98785.03;;;7.52;71.34
21594;BME280;10959;51.328;7.322;2023-01-30T13:27:22;98807.34;;;7.52;71.74